Cypress Inn, Tennessee
Current Conditions -  °F | °C
As of 7:53 PM on Friday 19 Dec 2014 (Local Time) from KMSL Reporting Station
Overcast Overcast  
Wind Chill: 38°   Ceiling: 8000
Heat Index: 41°   Visibility: 10mi
Dew Point: 31°   Wind: 5mph
Humidity: 67%   Direction: 80°E
Pressure: 30.22"   Gusts: NA
Location:  35.01°N, 87.82°W
Report Text: KMSL 200153Z AUTO 08004KT 10SM OVC080 05/M01 A3022 RMK AO2 SLP234 T00501006
Loading
Personal Weather Stations






























Interactive Weather Map New forecast layout! Learn more

10-Day Weather Forecast

Advertisements
Track Severe Weather on mobile